createdAt,value
2023-05-22T00:02:17.468Z,11.87
2023-05-22T00:04:47.550Z,10.70
2023-05-22T00:07:15.711Z,9.00
2023-05-22T00:09:44.212Z,10.27
2023-05-22T00:12:12.356Z,11.00
2023-05-22T00:14:40.445Z,12.50
2023-05-22T00:17:10.278Z,10.33
2023-05-22T00:19:38.458Z,10.10
2023-05-22T00:22:08.281Z,10.77
2023-05-22T00:27:56.206Z,10.07
2023-05-22T00:30:24.235Z,13.50
2023-05-22T00:32:52.573Z,11.03
2023-05-22T00:35:21.902Z,11.20
2023-05-22T00:37:51.301Z,10.17
2023-05-22T00:40:19.671Z,8.93
2023-05-22T00:42:48.011Z,9.77
2023-05-22T00:45:16.592Z,10.17
2023-05-22T00:47:44.707Z,7.93
2023-05-22T00:50:13.543Z,9.90
2023-05-22T00:52:44.112Z,9.83
2023-05-22T00:55:15.038Z,8.47
2023-05-22T00:57:43.758Z,9.50
2023-05-22T01:00:14.085Z,11.33
2023-05-22T01:02:43.116Z,10.83
2023-05-22T01:05:13.304Z,11.70
2023-05-22T01:07:41.793Z,11.87
2023-05-22T01:10:10.988Z,12.07
2023-05-22T01:12:54.093Z,10.63
2023-05-22T01:15:30.534Z,14.13
2023-05-22T01:18:11.255Z,11.43
2023-05-22T01:20:48.788Z,11.40
2023-05-22T01:24:06.541Z,11.40
2023-05-22T01:27:35.101Z,12.67
2023-05-22T01:30:29.934Z,10.73
2023-05-22T01:33:00.247Z,11.43
2023-05-22T01:35:29.650Z,9.00
2023-05-22T01:37:59.341Z,10.00
2023-05-22T01:40:28.187Z,11.67
2023-05-22T01:42:56.378Z,10.97
2023-05-22T01:45:25.432Z,12.17
2023-05-22T01:47:53.763Z,9.83
2023-05-22T01:50:23.413Z,11.90
2023-05-22T01:53:01.334Z,12.80
2023-05-22T01:55:42.929Z,12.27
2023-05-22T01:58:34.490Z,10.60
2023-05-22T02:04:00.618Z,9.93
2023-05-22T02:06:36.960Z,11.00
2023-05-22T02:09:06.377Z,9.40
2023-05-22T02:11:37.032Z,11.07
2023-05-22T02:14:06.002Z,12.57
2023-05-22T02:16:35.069Z,12.13
2023-05-22T02:19:06.468Z,9.13
2023-05-22T02:21:37.388Z,12.97
2023-05-22T02:24:06.315Z,11.97
2023-05-22T02:26:34.511Z,14.43
2023-05-22T02:29:03.685Z,13.77
2023-05-22T02:31:31.928Z,10.57
2023-05-22T02:34:00.063Z,9.63
2023-05-22T02:36:30.921Z,8.90
2023-05-22T02:39:01.161Z,10.93
2023-05-22T02:41:29.483Z,12.00
2023-05-22T02:43:58.012Z,10.53
2023-05-22T02:46:26.404Z,11.33
2023-05-22T02:48:54.596Z,12.33
2023-05-22T02:51:22.733Z,11.53
2023-05-22T02:53:51.054Z,11.87
2023-05-22T02:56:21.203Z,12.50
2023-05-22T02:58:49.362Z,10.93
2023-05-22T03:01:17.479Z,11.27
2023-05-22T03:03:45.827Z,10.70
2023-05-22T03:06:13.951Z,10.17
2023-05-22T03:08:44.308Z,12.33
2023-05-22T03:11:12.511Z,10.77
2023-05-22T03:13:41.946Z,10.43
2023-05-22T03:16:10.145Z,12.27
2023-05-22T03:18:42.737Z,11.93
2023-05-22T03:21:11.119Z,13.50
2023-05-22T03:23:40.359Z,11.57
2023-05-22T03:26:08.816Z,11.43
2023-05-22T03:28:39.168Z,13.07
2023-05-22T03:31:09.470Z,11.23
2023-05-22T03:33:57.811Z,10.90
2023-05-22T03:36:26.197Z,12.10
2023-05-22T03:38:54.876Z,11.10
2023-05-22T03:41:23.178Z,9.90
2023-05-22T03:43:51.323Z,13.97
2023-05-22T03:46:21.584Z,12.03
2023-05-22T03:48:49.900Z,11.23
2023-05-22T03:51:20.099Z,12.50
2023-05-22T03:53:48.754Z,12.40
2023-05-22T03:56:17.521Z,12.47
2023-05-22T03:58:45.681Z,10.60
2023-05-22T04:01:13.850Z,9.97
2023-05-22T04:03:43.554Z,11.23
2023-05-22T04:06:13.725Z,11.23
2023-05-22T04:08:42.102Z,11.70
2023-05-22T04:11:10.220Z,11.73
2023-05-22T04:13:38.772Z,15.57
2023-05-22T04:16:08.618Z,10.50
2023-05-22T04:18:36.892Z,13.13
2023-05-22T04:21:09.698Z,11.03
2023-05-22T04:23:38.685Z,11.07
2023-05-22T04:26:08.729Z,9.30
2023-05-22T04:28:36.998Z,10.47
2023-05-22T04:31:07.414Z,11.60
2023-05-22T04:33:36.542Z,13.43
2023-05-22T04:36:12.329Z,9.40
2023-05-22T04:38:41.420Z,10.67
2023-05-22T04:41:13.543Z,12.80
2023-05-22T04:43:41.804Z,10.67
2023-05-22T04:46:10.098Z,10.47
2023-05-22T04:48:40.225Z,13.77
2023-05-22T04:51:10.424Z,10.37
2023-05-22T04:53:38.621Z,12.00
2023-05-22T04:56:08.055Z,13.53
2023-05-22T04:58:37.894Z,11.73
2023-05-22T05:01:07.309Z,15.13
2023-05-22T05:03:36.059Z,13.13
2023-05-22T05:06:04.427Z,12.57
2023-05-22T05:08:33.934Z,15.33
2023-05-22T05:11:02.263Z,15.47
2023-05-22T05:13:30.762Z,12.73
2023-05-22T05:16:00.648Z,14.23
2023-05-22T05:18:29.192Z,13.97
2023-05-22T05:20:57.636Z,12.10
2023-05-22T05:23:26.102Z,12.40
2023-05-22T05:25:57.203Z,11.10
2023-05-22T05:28:26.257Z,12.70
2023-05-22T05:30:55.182Z,12.17
2023-05-22T05:33:31.232Z,12.70
2023-05-22T05:36:16.279Z,13.20
2023-05-22T05:38:46.855Z,13.20
2023-05-22T05:41:19.123Z,14.87
2023-05-22T05:43:52.824Z,14.30
2023-05-22T05:46:21.388Z,17.27
2023-05-22T05:48:49.499Z,14.93
2023-05-22T05:51:17.702Z,11.03
2023-05-22T05:53:45.968Z,13.30
2023-05-22T05:56:14.977Z,12.93
2023-05-22T05:58:44.797Z,12.00
2023-05-22T06:01:50.655Z,11.67
2023-05-22T06:04:24.277Z,13.70
2023-05-22T06:06:53.808Z,14.93
2023-05-22T06:09:37.289Z,12.27
2023-05-22T06:12:15.237Z,16.83
2023-05-22T06:14:47.433Z,11.73
2023-05-22T06:17:16.853Z,13.03
2023-05-22T06:19:46.320Z,11.90
2023-05-22T06:22:15.433Z,13.63
2023-05-22T06:24:45.828Z,12.50
2023-05-22T06:27:18.385Z,13.67
2023-05-22T06:29:47.923Z,11.43
2023-05-22T06:32:16.426Z,14.23
2023-05-22T06:34:48.537Z,15.23
2023-05-22T06:37:18.756Z,11.37
2023-05-22T06:39:48.507Z,13.87
2023-05-22T06:42:34.739Z,13.43
2023-05-22T06:45:31.171Z,12.43
2023-05-22T06:48:28.929Z,13.77
2023-05-22T06:51:15.060Z,13.03
2023-05-22T06:53:44.155Z,10.67
2023-05-22T06:56:19.607Z,16.50
2023-05-22T06:58:54.187Z,12.87
2023-05-22T07:01:30.128Z,13.97
2023-05-22T07:04:09.161Z,13.13
2023-05-22T07:06:41.890Z,12.73
2023-05-22T07:09:11.637Z,12.50
2023-05-22T07:11:39.918Z,12.10
2023-05-22T07:14:08.766Z,13.97
2023-05-22T07:16:38.333Z,11.70
2023-05-22T07:19:08.617Z,11.73
2023-05-22T07:21:37.138Z,12.27
2023-05-22T07:24:09.163Z,13.10
2023-05-22T07:26:46.509Z,12.73
2023-05-22T07:29:15.532Z,10.83
2023-05-22T07:31:46.548Z,12.10
2023-05-22T07:34:14.940Z,14.60
2023-05-22T07:36:43.413Z,11.90
2023-05-22T07:39:11.549Z,12.77
2023-05-22T07:41:51.078Z,10.17
2023-05-22T07:44:21.036Z,11.83
2023-05-22T07:46:52.049Z,11.93
2023-05-22T07:49:23.563Z,11.63
2023-05-22T07:51:52.633Z,11.93
2023-05-22T07:54:22.667Z,10.27
2023-05-22T07:56:53.555Z,10.03
2023-05-22T07:59:25.522Z,13.03
2023-05-22T08:01:58.592Z,12.33
2023-05-22T08:04:27.553Z,10.63
2023-05-22T08:06:55.776Z,11.17
2023-05-22T08:09:24.089Z,12.97
2023-05-22T08:11:52.250Z,12.10
2023-05-22T08:14:22.022Z,14.40
2023-05-22T08:16:50.312Z,13.23
2023-05-22T08:19:20.170Z,12.50
2023-05-22T08:21:48.331Z,13.43
2023-05-22T08:24:16.636Z,11.47
2023-05-22T08:26:44.828Z,11.93
2023-05-22T08:29:13.202Z,11.50
2023-05-22T08:31:41.672Z,17.37
2023-05-22T08:34:10.603Z,17.30
2023-05-22T08:36:40.150Z,12.13
2023-05-22T08:39:12.028Z,13.20
2023-05-22T08:41:40.261Z,13.33
2023-05-22T08:44:08.509Z,14.73
2023-05-22T08:46:38.142Z,15.63
2023-05-22T08:49:06.682Z,12.23
2023-05-22T08:51:38.759Z,14.67
2023-05-22T08:54:08.524Z,13.20
2023-05-22T08:56:45.415Z,12.50
2023-05-22T08:59:22.978Z,11.40
2023-05-22T09:01:52.404Z,13.97
2023-05-22T09:04:23.926Z,13.17
2023-05-22T09:06:52.661Z,11.27
2023-05-22T09:09:22.454Z,11.43
2023-05-22T09:11:50.808Z,10.93
2023-05-22T09:14:20.226Z,10.63
2023-05-22T09:16:50.750Z,11.50
2023-05-22T09:19:19.225Z,11.17
2023-05-22T09:21:47.615Z,10.53
2023-05-22T09:24:15.953Z,11.43
2023-05-22T09:26:46.247Z,14.13
2023-05-22T09:29:14.452Z,11.20
2023-05-22T09:31:44.656Z,11.90
2023-05-22T09:34:15.644Z,11.33
2023-05-22T09:36:44.432Z,10.83
2023-05-22T09:39:12.665Z,13.63
2023-05-22T09:41:41.744Z,11.77
2023-05-22T09:44:17.598Z,16.07
2023-05-22T09:46:48.040Z,12.23
2023-05-22T09:49:17.681Z,11.40
2023-05-22T09:51:48.820Z,9.87
2023-05-22T09:54:19.813Z,13.47
2023-05-22T09:56:51.356Z,11.07
2023-05-22T09:59:30.285Z,10.83
2023-05-22T10:02:01.843Z,10.80
2023-05-22T10:04:34.043Z,12.37
2023-05-22T10:07:04.331Z,9.43
2023-05-22T10:09:36.791Z,11.03
2023-05-22T10:12:09.157Z,9.33
2023-05-22T10:14:38.979Z,10.43
2023-05-22T10:17:08.051Z,9.07
2023-05-22T10:19:39.456Z,10.80
2023-05-22T10:22:10.236Z,9.20
2023-05-22T10:24:38.987Z,10.17
2023-05-22T10:27:07.491Z,11.00
2023-05-22T10:29:44.243Z,9.93
2023-05-22T10:32:21.980Z,9.37
2023-05-22T10:35:07.228Z,10.40
2023-05-22T10:37:50.050Z,9.67
2023-05-22T10:40:28.966Z,9.83
2023-05-22T10:43:01.562Z,9.77
2023-05-22T10:45:31.876Z,9.73
2023-05-22T10:48:08.644Z,10.90
2023-05-22T10:50:37.493Z,10.77
2023-05-22T10:53:25.273Z,9.60
2023-05-22T10:55:54.824Z,9.30
2023-05-22T10:58:28.604Z,11.97
2023-05-22T11:01:13.979Z,10.83
2023-05-22T11:03:56.928Z,8.53
2023-05-22T11:06:36.295Z,10.00
2023-05-22T11:09:21.755Z,10.43
2023-05-22T11:12:11.606Z,9.70
2023-05-22T11:14:39.817Z,8.27
2023-05-22T11:17:09.534Z,8.97
2023-05-22T11:19:37.805Z,9.17
2023-05-22T11:22:06.815Z,9.87
2023-05-22T11:24:35.814Z,9.37
2023-05-22T11:27:07.494Z,11.03
2023-05-22T11:29:37.393Z,9.37
2023-05-22T11:32:06.400Z,9.13
2023-05-22T11:34:37.007Z,8.47
2023-05-22T11:37:05.570Z,9.27
2023-05-22T11:39:34.411Z,10.13
2023-05-22T11:42:04.562Z,8.13
2023-05-22T11:44:32.940Z,15.83
2023-05-22T11:47:02.005Z,8.20
2023-05-22T11:49:30.250Z,10.07
2023-05-22T11:51:59.931Z,8.13
2023-05-22T11:54:32.693Z,9.93
2023-05-22T11:57:00.799Z,9.50
2023-05-22T11:59:28.988Z,11.67
2023-05-22T12:01:57.259Z,9.43
2023-05-22T12:04:25.623Z,7.70
2023-05-22T12:06:54.692Z,8.77
2023-05-22T12:09:24.823Z,8.77
2023-05-22T12:11:55.812Z,8.93
2023-05-22T12:14:27.970Z,9.73
2023-05-22T12:16:56.873Z,8.60
2023-05-22T12:19:27.868Z,11.30
2023-05-22T12:21:56.882Z,9.13
2023-05-22T12:24:26.643Z,9.00
2023-05-22T12:26:55.411Z,9.67
2023-05-22T12:29:24.465Z,8.27
2023-05-22T12:31:53.112Z,9.03
2023-05-22T12:34:21.379Z,9.03
2023-05-22T12:36:49.688Z,9.57
2023-05-22T12:39:20.033Z,10.37
2023-05-22T12:41:49.534Z,9.13
2023-05-22T12:44:17.742Z,7.67
2023-05-22T12:46:46.054Z,10.33
2023-05-22T12:49:14.281Z,9.03
2023-05-22T12:51:42.512Z,12.53
2023-05-22T12:54:10.721Z,8.20
2023-05-22T12:56:38.919Z,9.37
2023-05-22T12:59:08.658Z,8.83
2023-05-22T13:01:36.820Z,11.30
2023-05-22T13:04:05.009Z,8.70
2023-05-22T13:06:33.081Z,9.73
2023-05-22T13:09:01.313Z,10.10
2023-05-22T13:11:29.640Z,9.30
2023-05-22T13:13:57.736Z,12.70
2023-05-22T13:16:27.527Z,8.60
2023-05-22T13:18:55.862Z,10.60
2023-05-22T13:21:26.363Z,9.37
2023-05-22T13:23:54.747Z,9.77
2023-05-22T13:26:22.915Z,8.33
2023-05-22T13:28:51.737Z,10.10
2023-05-22T13:31:19.864Z,9.40
2023-05-22T13:33:49.423Z,9.80
2023-05-22T13:36:18.788Z,8.70
2023-05-22T13:38:46.966Z,8.27
2023-05-22T13:41:17.630Z,12.53
2023-05-22T13:43:45.822Z,8.87
2023-05-22T13:46:13.918Z,8.53
2023-05-22T13:48:42.227Z,10.20
2023-05-22T13:51:11.861Z,8.33
2023-05-22T13:53:39.958Z,9.17
2023-05-22T13:56:08.138Z,8.17
2023-05-22T13:58:36.208Z,7.80
2023-05-22T14:01:04.494Z,7.13
2023-05-22T14:03:32.840Z,9.60
2023-05-22T14:06:01.338Z,10.83
2023-05-22T14:08:30.996Z,9.83
2023-05-22T14:10:59.180Z,11.20
2023-05-22T14:13:27.385Z,7.40
2023-05-22T14:15:55.682Z,8.70
2023-05-22T14:18:23.869Z,9.10
2023-05-22T14:20:52.020Z,8.43
2023-05-22T14:23:20.444Z,8.13
2023-05-22T14:25:49.985Z,9.30
2023-05-22T14:28:18.227Z,6.97
2023-05-22T14:30:46.547Z,10.60
2023-05-22T14:33:14.786Z,7.53
2023-05-22T14:35:43.093Z,9.03
2023-05-22T14:38:11.470Z,10.50
2023-05-22T14:40:39.657Z,10.90
2023-05-22T14:43:09.283Z,9.57
2023-05-22T14:45:37.485Z,10.73
2023-05-22T14:48:05.937Z,9.43
2023-05-22T14:50:34.053Z,9.40
2023-05-22T14:53:02.464Z,8.83
2023-05-22T14:55:31.535Z,9.30
2023-05-22T14:57:59.851Z,7.80
2023-05-22T15:00:30.188Z,7.17
2023-05-22T15:02:58.421Z,7.33
2023-05-22T15:05:27.049Z,8.07
2023-05-22T15:07:58.365Z,6.87
2023-05-22T15:10:27.073Z,6.00
2023-05-22T15:12:55.417Z,7.10
2023-05-22T15:15:23.787Z,7.37
2023-05-22T15:17:53.435Z,7.17
2023-05-22T15:20:21.574Z,6.53
2023-05-22T15:22:50.319Z,8.17
2023-05-22T15:25:18.473Z,8.03
2023-05-22T15:27:46.594Z,8.47
2023-05-22T15:30:16.910Z,7.90
2023-05-22T15:32:45.253Z,12.40
2023-05-22T15:35:14.920Z,8.33
2023-05-22T15:37:43.220Z,9.60
2023-05-22T15:40:16.378Z,7.87
2023-05-22T15:42:44.692Z,7.77
2023-05-22T15:45:13.169Z,8.20
2023-05-22T15:47:42.729Z,8.67
2023-05-22T15:50:11.872Z,7.83
2023-05-22T15:52:41.520Z,10.93
2023-05-22T15:55:10.176Z,7.77
2023-05-22T15:57:38.544Z,6.53
2023-05-22T16:00:09.208Z,8.23
2023-05-22T16:02:37.531Z,11.20
2023-05-22T16:05:06.752Z,7.73
2023-05-22T16:07:34.900Z,8.83
2023-05-22T16:10:05.041Z,6.57
2023-05-22T16:12:33.273Z,7.03
2023-05-22T16:15:02.812Z,8.20
2023-05-22T16:17:32.202Z,7.63
2023-05-22T16:20:00.426Z,10.10
2023-05-22T16:22:40.026Z,7.37
2023-05-22T16:25:18.389Z,9.13
2023-05-22T16:27:46.648Z,8.00
2023-05-22T16:30:17.166Z,8.43
2023-05-22T16:32:46.710Z,7.20
2023-05-22T16:35:15.785Z,10.77
2023-05-22T16:37:43.999Z,7.27
2023-05-22T16:40:12.904Z,8.47
2023-05-22T16:42:42.427Z,8.57
2023-05-22T16:45:11.016Z,7.77
2023-05-22T16:47:39.307Z,9.43
2023-05-22T16:50:09.633Z,9.10
2023-05-22T16:52:37.777Z,7.13
2023-05-22T16:55:07.239Z,8.83
2023-05-22T16:57:35.474Z,8.37
2023-05-22T17:00:06.972Z,8.90
2023-05-22T17:02:35.440Z,8.20
2023-05-22T17:05:03.702Z,7.90
2023-05-22T17:07:32.520Z,7.03
2023-05-22T17:10:01.016Z,7.80
2023-05-22T17:12:29.235Z,9.47
2023-05-22T17:14:57.340Z,7.77
2023-05-22T17:17:26.863Z,6.20
2023-05-22T17:19:55.068Z,6.17
2023-05-22T17:22:23.133Z,8.27
2023-05-22T17:24:51.265Z,12.10
2023-05-22T17:27:34.368Z,10.10
2023-05-22T17:30:04.522Z,11.27
2023-05-22T17:32:34.052Z,8.33
2023-05-22T17:35:04.922Z,8.17
2023-05-22T17:37:33.213Z,9.33
2023-05-22T17:40:01.376Z,7.73
2023-05-22T17:42:29.628Z,7.97
2023-05-22T17:44:57.780Z,6.77
2023-05-22T17:47:25.947Z,7.07
2023-05-22T17:49:55.827Z,7.10
2023-05-22T17:52:23.976Z,9.60
2023-05-22T17:54:52.084Z,9.27
2023-05-22T17:57:20.182Z,6.60
2023-05-22T17:59:48.344Z,7.73
2023-05-22T18:02:16.678Z,8.27
2023-05-22T18:04:44.834Z,7.23
2023-05-22T18:07:16.006Z,9.87
2023-05-22T18:09:44.108Z,6.13
2023-05-22T18:12:30.146Z,6.10
2023-05-22T18:14:59.293Z,6.50
2023-05-22T18:17:27.548Z,6.87
2023-05-22T18:19:55.865Z,6.60
2023-05-22T18:22:25.950Z,5.63
2023-05-22T18:24:54.977Z,7.93
2023-05-22T18:27:23.139Z,5.60
2023-05-22T18:29:51.813Z,5.90
2023-05-22T18:32:20.031Z,4.73
2023-05-22T18:34:48.616Z,5.10
2023-05-22T18:37:17.413Z,5.47
2023-05-22T18:39:47.227Z,5.67
2023-05-22T18:42:16.159Z,6.00
2023-05-22T18:44:46.857Z,5.70
2023-05-22T18:47:17.118Z,7.00
2023-05-22T18:49:45.926Z,5.27
2023-05-22T18:52:14.452Z,6.73
2023-05-22T18:54:42.599Z,6.20
2023-05-22T18:57:12.125Z,6.90
2023-05-22T18:59:40.774Z,5.47
2023-05-22T19:02:09.725Z,7.47
2023-05-22T19:04:38.181Z,8.60
2023-05-22T19:07:06.534Z,5.87
2023-05-22T19:09:34.595Z,6.73
2023-05-22T19:12:02.722Z,9.73
2023-05-22T19:14:32.611Z,5.80
2023-05-22T19:17:01.231Z,7.40
2023-05-22T19:19:30.219Z,6.17
2023-05-22T19:21:58.503Z,6.67
2023-05-22T19:24:28.112Z,5.43
2023-05-22T19:26:56.256Z,6.93
2023-05-22T19:29:24.375Z,6.20
2023-05-22T19:31:54.739Z,6.07
2023-05-22T19:34:23.198Z,7.87
2023-05-22T19:36:52.038Z,11.00
2023-05-22T19:39:20.130Z,10.33
2023-05-22T19:41:48.448Z,10.53
2023-05-22T19:44:16.713Z,8.77
2023-05-22T19:46:44.933Z,6.73
2023-05-22T19:49:14.464Z,9.30
2023-05-22T19:51:43.709Z,7.43
2023-05-22T19:54:11.859Z,7.20
2023-05-22T19:56:40.012Z,6.50
2023-05-22T19:59:08.171Z,8.70
2023-05-22T20:01:36.340Z,7.20
2023-05-22T20:04:04.599Z,10.57
2023-05-22T20:06:34.717Z,7.37
2023-05-22T20:09:03.248Z,8.77
2023-05-22T20:11:31.616Z,9.10
2023-05-22T20:13:59.837Z,7.07
2023-05-22T20:16:29.518Z,7.03
2023-05-22T20:18:58.081Z,7.63
2023-05-22T20:21:27.067Z,6.40
2023-05-22T20:23:56.572Z,9.03
2023-05-22T20:26:24.718Z,7.97
2023-05-22T20:28:53.309Z,8.73
2023-05-22T20:31:21.485Z,7.10
2023-05-22T20:33:50.104Z,6.23
2023-05-22T20:36:18.805Z,6.43
2023-05-22T20:38:47.016Z,8.23
2023-05-22T20:41:16.523Z,10.37
2023-05-22T20:43:44.688Z,7.27
2023-05-22T20:46:12.970Z,7.17
2023-05-22T20:48:46.768Z,11.50
2023-05-22T20:51:15.666Z,6.73
2023-05-22T20:53:43.829Z,6.83
2023-05-22T20:56:12.366Z,10.33
2023-05-22T20:58:42.407Z,8.93
2023-05-22T21:01:10.604Z,8.60
2023-05-22T21:03:39.138Z,7.07
2023-05-22T21:06:07.690Z,7.00
2023-05-22T21:08:35.764Z,6.90
2023-05-22T21:11:03.915Z,7.63
2023-05-22T21:13:32.030Z,8.40
2023-05-22T21:16:01.677Z,8.30
2023-05-22T21:18:29.978Z,6.30
2023-05-22T21:20:58.130Z,7.07
2023-05-22T21:23:26.306Z,7.50
2023-05-22T21:25:54.423Z,7.20
2023-05-22T21:28:22.568Z,8.43
2023-05-22T21:30:50.823Z,7.90
2023-05-22T21:33:20.597Z,7.13
2023-05-22T21:35:48.798Z,8.30
2023-05-22T21:38:16.978Z,7.97
2023-05-22T21:40:45.670Z,7.87
2023-05-22T21:43:13.832Z,7.40
2023-05-22T21:45:42.131Z,9.07
2023-05-22T21:48:10.327Z,7.53
2023-05-22T21:50:40.011Z,10.30
2023-05-22T21:53:08.281Z,8.13
2023-05-22T21:55:36.921Z,6.70
2023-05-22T21:58:05.270Z,7.47
2023-05-22T22:00:33.492Z,7.93
2023-05-22T22:03:01.799Z,8.93
2023-05-22T22:05:30.000Z,8.97
2023-05-22T22:07:59.543Z,7.37
2023-05-22T22:10:27.649Z,9.67
2023-05-22T22:12:55.922Z,11.43
2023-05-22T22:15:24.390Z,8.73
2023-05-22T22:17:53.265Z,8.50
2023-05-22T22:20:30.536Z,8.13
2023-05-22T22:23:09.381Z,7.37
2023-05-22T22:25:39.250Z,8.17
2023-05-22T22:28:08.068Z,11.73
2023-05-22T22:30:36.226Z,7.57
2023-05-22T22:33:04.653Z,7.67
2023-05-22T22:35:32.940Z,9.77
2023-05-22T22:38:01.153Z,8.10
2023-05-22T22:40:30.708Z,7.63
2023-05-22T22:42:58.851Z,8.57
2023-05-22T22:45:27.161Z,10.90
2023-05-22T22:47:56.504Z,9.23
2023-05-22T22:50:25.437Z,7.93
2023-05-22T22:52:53.670Z,9.30
2023-05-22T22:55:22.169Z,9.53
2023-05-22T22:57:52.047Z,11.17
2023-05-22T23:00:20.613Z,9.53
2023-05-22T23:02:48.911Z,10.17
2023-05-22T23:05:20.332Z,10.27
2023-05-22T23:07:49.136Z,9.57
2023-05-22T23:10:17.290Z,9.43
2023-05-22T23:12:45.485Z,13.43
2023-05-22T23:15:15.891Z,11.10
2023-05-22T23:17:44.044Z,12.50
2023-05-22T23:20:12.762Z,12.47
2023-05-22T23:22:41.090Z,13.27
2023-05-22T23:25:10.363Z,17.20
2023-05-22T23:27:39.275Z,16.10
2023-05-22T23:30:09.341Z,16.47
2023-05-22T23:32:38.818Z,19.57
2023-05-22T23:35:09.995Z,18.97
2023-05-22T23:37:38.246Z,23.17
2023-05-22T23:40:09.658Z,18.33
2023-05-22T23:42:37.955Z,24.77
2023-05-22T23:45:07.438Z,23.37
2023-05-22T23:47:35.574Z,28.47
2023-05-22T23:50:05.987Z,23.13
2023-05-22T23:52:34.159Z,24.00
2023-05-22T23:55:02.260Z,24.47
2023-05-22T23:57:30.602Z,27.87
2023-05-22T23:59:58.734Z,30.63
